createdAt,value
2018-09-17T00:03:31.227Z,58.20
2018-09-17T00:13:35.969Z,58.30
2018-09-17T00:23:40.621Z,58.20
2018-09-17T00:33:45.325Z,58.30
2018-09-17T00:43:49.955Z,58.20
2018-09-17T00:53:54.673Z,58.30
2018-09-17T01:03:59.344Z,58.30
2018-09-17T01:14:03.990Z,58.40
2018-09-17T01:24:08.887Z,58.30
2018-09-17T01:34:13.461Z,58.30
2018-09-17T01:44:18.173Z,58.30
2018-09-17T01:54:22.748Z,58.40
2018-09-17T02:04:27.303Z,58.30
2018-09-17T02:14:31.883Z,58.50
2018-09-17T02:24:36.639Z,59.10
2018-09-17T02:34:41.301Z,58.50
2018-09-17T02:44:45.849Z,58.40
2018-09-17T02:54:50.499Z,58.50
2018-09-17T03:04:55.368Z,58.50
2018-09-17T03:15:11.427Z,58.50
2018-09-17T03:25:16.136Z,58.50
2018-09-17T03:35:21.781Z,58.50
2018-09-17T03:45:26.516Z,58.50
2018-09-17T03:55:31.227Z,58.50
2018-09-17T04:05:36.061Z,58.50
2018-09-17T04:15:40.982Z,58.50
2018-09-17T04:25:45.682Z,58.50
2018-09-17T04:35:51.595Z,58.60
2018-09-17T04:45:56.349Z,58.90
2018-09-17T04:56:01.155Z,58.50
2018-09-17T05:06:06.128Z,58.40
2018-09-17T05:16:10.996Z,58.50
2018-09-17T05:26:16.724Z,58.60
2018-09-17T05:36:21.487Z,58.70
2018-09-17T05:46:26.238Z,58.50
2018-09-17T05:56:30.933Z,58.40
2018-09-17T06:06:36.277Z,58.40
2018-09-17T06:16:41.129Z,58.40
2018-09-17T06:26:45.806Z,58.60
2018-09-17T06:36:50.681Z,58.60
2018-09-17T06:46:55.432Z,58.80
2018-09-17T06:57:00.079Z,58.70
2018-09-17T07:07:05.064Z,58.50
2018-09-17T07:17:09.851Z,58.50
2018-09-17T07:27:14.585Z,58.50
2018-09-17T07:37:19.340Z,58.50
2018-09-17T07:47:23.972Z,58.60
2018-09-17T07:57:28.668Z,58.50
2018-09-17T08:07:33.265Z,58.50
2018-09-17T08:17:38.002Z,58.60
2018-09-17T08:27:42.703Z,58.60
2018-09-17T08:37:47.420Z,58.70
2018-09-17T08:47:52.203Z,58.80
2018-09-17T08:57:56.917Z,58.70
2018-09-17T09:08:01.655Z,58.40
2018-09-17T09:18:07.413Z,58.80
2018-09-17T09:28:11.961Z,58.80
2018-09-17T09:38:16.587Z,58.80
2018-09-17T09:48:21.282Z,58.80
2018-09-17T09:58:25.923Z,58.80
2018-09-17T10:08:31.699Z,58.80
2018-09-17T10:18:41.416Z,58.80
2018-09-17T10:28:46.316Z,58.70
2018-09-17T10:38:51.000Z,58.60
2018-09-17T10:48:55.542Z,58.70
2018-09-17T10:59:00.184Z,58.60
2018-09-17T11:09:07.676Z,58.60
2018-09-17T11:19:12.328Z,58.60
2018-09-17T11:29:16.978Z,58.60
2018-09-17T11:39:21.611Z,58.50
2018-09-17T11:49:26.167Z,58.60
2018-09-17T11:59:30.893Z,58.60
2018-09-17T12:09:35.563Z,58.70
2018-09-17T12:19:40.358Z,58.80
2018-09-17T12:29:44.991Z,58.70
2018-09-17T12:39:49.796Z,58.70
2018-09-17T12:49:54.621Z,58.70
2018-09-17T12:59:59.275Z,58.70
2018-09-17T13:10:04.077Z,58.70
2018-09-17T13:20:09.705Z,59.20
2018-09-17T13:30:14.582Z,58.60
2018-09-17T13:40:19.154Z,58.50
2018-09-17T13:50:23.713Z,58.50
2018-09-17T14:00:28.486Z,58.50
2018-09-17T14:10:33.115Z,58.50
2018-09-17T14:20:37.727Z,58.40
2018-09-17T14:30:42.351Z,58.40
2018-09-17T14:40:46.890Z,58.40
2018-09-17T14:50:53.028Z,58.30
2018-09-17T15:00:57.578Z,58.30
2018-09-17T15:11:02.199Z,58.40
2018-09-17T15:21:07.008Z,58.30
2018-09-17T15:31:11.876Z,58.40
2018-09-17T15:41:16.653Z,58.40
2018-09-17T15:51:21.124Z,58.40
2018-09-17T16:01:26.861Z,58.30
2018-09-17T16:11:31.636Z,58.30
2018-09-17T16:21:36.387Z,58.30
2018-09-17T16:31:41.032Z,58.30
2018-09-17T16:41:46.874Z,58.30
2018-09-17T16:51:51.695Z,58.30
2018-09-17T17:01:56.323Z,58.30
2018-09-17T17:12:01.227Z,58.30
2018-09-17T17:22:05.800Z,58.30
2018-09-17T17:32:11.514Z,58.30
2018-09-17T17:42:16.234Z,58.30
2018-09-17T17:52:20.988Z,58.30
2018-09-17T18:02:25.630Z,58.30
2018-09-17T18:12:30.447Z,58.40
2018-09-17T18:22:35.207Z,58.40
2018-09-17T18:32:40.003Z,58.40
2018-09-17T18:42:44.739Z,58.40
2018-09-17T18:52:49.424Z,58.40
2018-09-17T19:02:54.275Z,58.40
2018-09-17T19:12:58.963Z,58.40
2018-09-17T19:23:08.721Z,58.40
2018-09-17T19:33:13.887Z,58.40
2018-09-17T19:43:18.430Z,58.40
2018-09-17T19:53:23.244Z,58.50
2018-09-17T20:03:27.890Z,59.00
2018-09-17T20:13:32.491Z,58.40
2018-09-17T20:23:37.145Z,58.40
2018-09-17T20:33:41.937Z,58.40
2018-09-17T20:43:46.628Z,58.40
2018-09-17T20:53:51.284Z,58.40
2018-09-17T21:03:56.080Z,58.40
2018-09-17T21:14:00.672Z,58.40
2018-09-17T21:24:06.485Z,58.30
2018-09-17T21:34:11.104Z,58.30
2018-09-17T21:44:15.801Z,58.20
2018-09-17T21:54:20.340Z,58.20
2018-09-17T22:04:25.123Z,58.20
2018-09-17T22:14:29.724Z,58.20
2018-09-17T22:24:34.451Z,58.20
2018-09-17T22:34:39.186Z,58.20
2018-09-17T22:44:44.220Z,58.20
2018-09-17T22:54:48.877Z,58.20
2018-09-17T23:04:53.712Z,58.20
2018-09-17T23:14:58.404Z,58.20
2018-09-17T23:25:03.201Z,58.20
2018-09-17T23:35:08.076Z,58.10
2018-09-17T23:45:12.704Z,58.20
2018-09-17T23:55:17.284Z,58.20
